createdAt,value
2023-03-05T00:02:57.798Z,-4.66
2023-03-05T00:08:04.952Z,-4.67
2023-03-05T00:13:10.804Z,-4.68
2023-03-05T00:18:17.002Z,-4.64
2023-03-05T00:23:22.826Z,-4.61
2023-03-05T00:28:28.642Z,-4.58
2023-03-05T00:33:34.415Z,-4.57
2023-03-05T00:38:40.767Z,-4.56
2023-03-05T00:43:47.253Z,-4.56
2023-03-05T00:48:53.291Z,-4.58
2023-03-05T00:53:59.408Z,-4.61
2023-03-05T00:59:06.266Z,-4.64
2023-03-05T01:04:12.472Z,-4.69
2023-03-05T01:09:19.527Z,-4.72
2023-03-05T01:14:27.792Z,-4.73
2023-03-05T01:19:33.663Z,-4.74
2023-03-05T01:24:39.491Z,-4.75
2023-03-05T01:29:45.796Z,-4.77
2023-03-05T01:34:51.841Z,-4.80
2023-03-05T01:39:57.612Z,-4.81
2023-03-05T01:45:07.084Z,-4.84
2023-03-05T01:50:16.141Z,-4.87
2023-03-05T01:55:25.660Z,-4.87
2023-03-05T02:00:35.867Z,-4.86
2023-03-05T02:05:44.427Z,-4.83
2023-03-05T02:10:53.023Z,-4.82
2023-03-05T02:16:01.807Z,-4.82
2023-03-05T02:21:08.753Z,-4.79
2023-03-05T02:26:14.896Z,-4.78
2023-03-05T02:31:23.282Z,-4.78
2023-03-05T02:36:29.283Z,-4.74
2023-03-05T02:41:35.383Z,-4.61
2023-03-05T02:46:41.397Z,-4.54
2023-03-05T02:51:47.262Z,-4.51
2023-03-05T02:56:53.077Z,-4.53
2023-03-05T03:02:01.083Z,-4.57
2023-03-05T03:07:07.439Z,-4.64
2023-03-05T03:12:13.408Z,-4.70
2023-03-05T03:17:20.120Z,-4.74
2023-03-05T03:22:26.066Z,-4.77
2023-03-05T03:27:31.968Z,-4.80
2023-03-05T03:32:37.869Z,-4.80
2023-03-05T03:37:43.926Z,-4.78
2023-03-05T03:42:51.139Z,-4.74
2023-03-05T03:47:57.251Z,-4.73
2023-03-05T03:53:03.863Z,-4.73
2023-03-05T03:58:09.670Z,-4.68
2023-03-05T04:03:15.566Z,-4.57
2023-03-05T04:08:21.672Z,-4.44
2023-03-05T04:13:27.581Z,-4.35
2023-03-05T04:18:33.734Z,-4.31
2023-03-05T04:23:39.764Z,-4.31
2023-03-05T04:28:46.589Z,-4.30
2023-03-05T04:33:52.421Z,-4.30
2023-03-05T04:38:58.367Z,-4.30
2023-03-05T04:44:05.238Z,-4.31
2023-03-05T04:49:11.052Z,-4.31
2023-03-05T04:54:17.057Z,-4.30
2023-03-05T04:59:22.897Z,-4.30
2023-03-05T05:04:28.841Z,-4.33
2023-03-05T05:09:35.013Z,-4.35
2023-03-05T05:14:40.781Z,-4.38
2023-03-05T05:19:46.788Z,-4.38
2023-03-05T05:24:52.524Z,-4.32
2023-03-05T05:29:58.641Z,-4.19
2023-03-05T05:35:05.515Z,-4.05
2023-03-05T05:40:13.195Z,-3.93
2023-03-05T05:45:19.472Z,-3.86
2023-03-05T05:50:25.367Z,-3.81
2023-03-05T05:55:31.332Z,-3.76
2023-03-05T06:00:38.465Z,-3.68
2023-03-05T06:05:44.894Z,-3.54
2023-03-05T06:10:56.304Z,-3.31
2023-03-05T06:16:03.854Z,-2.86
2023-03-05T06:21:11.771Z,-1.26
2023-03-05T06:26:20.156Z,1.07
2023-03-05T06:31:27.731Z,2.85
2023-03-05T06:36:33.904Z,3.40
2023-03-05T06:41:40.055Z,3.97
2023-03-05T06:46:45.856Z,4.46
2023-03-05T06:51:51.457Z,4.05
2023-03-05T06:56:57.326Z,3.64
2023-03-05T07:02:04.470Z,3.52
2023-03-05T07:07:10.188Z,3.56
2023-03-05T07:12:16.709Z,3.73
2023-03-05T07:17:22.640Z,4.58
2023-03-05T07:22:28.914Z,6.23
2023-03-05T07:27:38.473Z,6.90
2023-03-05T07:32:44.424Z,6.81
2023-03-05T07:37:50.531Z,6.64
2023-03-05T07:42:56.832Z,6.81
2023-03-05T07:48:08.553Z,6.45
2023-03-05T07:53:15.635Z,5.95
2023-03-05T07:58:22.065Z,5.64
2023-03-05T08:03:28.336Z,5.42
2023-03-05T08:08:34.405Z,5.22
2023-03-05T08:13:41.045Z,4.95
2023-03-05T08:18:47.694Z,4.44
2023-03-05T08:23:53.372Z,3.96
2023-03-05T08:28:59.825Z,3.46
2023-03-05T08:34:07.571Z,3.10
2023-03-05T08:39:13.492Z,2.86
2023-03-05T08:44:19.425Z,2.65
2023-03-05T08:49:25.582Z,2.36
2023-03-05T08:54:31.151Z,2.17
2023-03-05T08:59:36.947Z,2.00
2023-03-05T09:04:42.848Z,1.80
2023-03-05T09:09:48.733Z,1.66
2023-03-05T09:14:57.292Z,1.54
2023-03-05T09:20:04.200Z,1.44
2023-03-05T09:25:12.960Z,1.35
2023-03-05T09:30:19.707Z,1.33
2023-03-05T09:35:25.875Z,1.33
2023-03-05T09:40:42.230Z,1.34
2023-03-05T09:46:02.368Z,1.33
2023-03-05T09:51:16.820Z,1.34
2023-03-05T09:56:26.710Z,1.37
2023-03-05T10:01:39.679Z,1.43
2023-03-05T10:06:53.636Z,1.45
2023-03-05T10:12:03.572Z,1.49
2023-03-05T10:17:40.109Z,1.57
2023-03-05T10:23:04.249Z,1.59
2023-03-05T10:28:17.989Z,1.55
2023-03-05T10:33:35.089Z,1.53
2023-03-05T10:38:59.967Z,1.53
2023-03-05T10:44:15.833Z,1.52
2023-03-05T10:49:26.796Z,1.55
2023-03-05T10:54:35.982Z,1.50
2023-03-05T10:59:46.866Z,1.42
2023-03-05T11:04:54.504Z,1.35
2023-03-05T11:10:17.614Z,1.27
2023-03-05T11:15:30.481Z,1.19
2023-03-05T11:20:37.766Z,1.25
2023-03-05T11:26:01.975Z,1.19
2023-03-05T11:31:21.612Z,1.06
2023-03-05T11:36:30.999Z,1.02
2023-03-05T11:41:40.688Z,1.02
2023-03-05T11:46:51.009Z,0.98
2023-03-05T11:52:06.705Z,0.87
2023-03-05T11:57:16.861Z,0.82
2023-03-05T12:02:25.986Z,0.83
2023-03-05T12:07:37.565Z,0.86
2023-03-05T12:12:48.988Z,0.89
2023-03-05T12:18:07.143Z,0.85
2023-03-05T12:23:18.528Z,0.78
2023-03-05T12:28:57.604Z,0.70
2023-03-05T12:34:47.368Z,0.61
2023-03-05T12:40:01.203Z,0.54
2023-03-05T12:45:29.124Z,0.52
2023-03-05T12:50:59.334Z,0.47
2023-03-05T12:56:17.091Z,0.43
2023-03-05T13:01:36.064Z,0.46
2023-03-05T13:06:42.925Z,0.51
2023-03-05T13:11:55.365Z,0.58
2023-03-05T13:17:03.064Z,0.62
2023-03-05T13:22:13.364Z,0.58
2023-03-05T13:27:29.469Z,0.52
2023-03-05T13:32:35.914Z,0.46
2023-03-05T13:37:43.837Z,0.42
2023-03-05T13:42:53.225Z,0.45
2023-03-05T13:48:01.247Z,0.44
2023-03-05T13:53:21.088Z,0.46
2023-03-05T13:58:49.583Z,0.45
2023-03-05T14:03:58.006Z,0.48
2023-03-05T14:09:18.761Z,0.58
2023-03-05T14:14:26.370Z,0.61
2023-03-05T14:19:38.408Z,0.57
2023-03-05T14:24:53.155Z,0.49
2023-03-05T14:29:59.609Z,0.48
2023-03-05T14:35:07.489Z,0.46
2023-03-05T14:40:26.291Z,0.45
2023-03-05T14:45:33.518Z,0.48
2023-03-05T14:50:43.196Z,0.51
2023-03-05T14:55:56.057Z,0.48
2023-03-05T15:01:03.490Z,0.45
2023-03-05T15:06:16.121Z,0.37
2023-03-05T15:11:23.235Z,0.26
2023-03-05T15:16:30.500Z,0.17
2023-03-05T15:21:37.917Z,0.15
2023-03-05T15:26:43.819Z,0.12
2023-03-05T15:31:52.730Z,0.08
2023-03-05T15:36:58.557Z,0.01
2023-03-05T15:42:06.396Z,-0.06
2023-03-05T15:47:12.512Z,-0.22
2023-03-05T15:52:18.165Z,-0.35
2023-03-05T15:57:24.403Z,-0.43
2023-03-05T16:02:30.118Z,-0.50
2023-03-05T16:07:39.829Z,-0.56
2023-03-05T16:12:48.441Z,-0.66
2023-03-05T16:17:56.574Z,-0.80
2023-03-05T16:23:04.145Z,-0.93
2023-03-05T16:28:10.942Z,-1.04
2023-03-05T16:33:16.762Z,-1.13
2023-03-05T16:38:22.622Z,-1.19
2023-03-05T16:43:28.811Z,-1.28
2023-03-05T16:48:35.858Z,-1.31
2023-03-05T16:53:42.526Z,-1.27
2023-03-05T16:58:50.494Z,-1.24
2023-03-05T17:03:59.689Z,-1.24
2023-03-05T17:09:05.724Z,-1.30
2023-03-05T17:14:11.540Z,-1.39
2023-03-05T17:19:17.696Z,-1.52
2023-03-05T17:24:23.571Z,-1.63
2023-03-05T17:29:29.573Z,-1.78
2023-03-05T17:34:36.943Z,-1.96
2023-03-05T17:39:43.000Z,-2.14
2023-03-05T17:44:50.300Z,-2.32
2023-03-05T17:49:56.717Z,-2.48
2023-03-05T17:55:02.830Z,-2.60
2023-03-05T18:00:15.182Z,-2.63
2023-03-05T18:05:23.565Z,-2.59
2023-03-05T18:10:31.165Z,-2.59
2023-03-05T18:15:40.519Z,-2.65
2023-03-05T18:20:48.713Z,-2.75
2023-03-05T18:25:54.755Z,-2.87
2023-03-05T18:31:01.111Z,-2.98
2023-03-05T18:36:10.785Z,-3.10
2023-03-05T18:41:22.422Z,-3.22
2023-03-05T18:46:28.575Z,-3.28
2023-03-05T18:51:36.343Z,-3.26
2023-03-05T18:56:42.464Z,-3.18
2023-03-05T19:01:48.598Z,-3.14
2023-03-05T19:06:55.185Z,-3.15
2023-03-05T19:12:01.143Z,-3.21
2023-03-05T19:17:06.780Z,-3.24
2023-03-05T19:22:12.933Z,-3.22
2023-03-05T19:27:18.881Z,-3.21
2023-03-05T19:32:25.098Z,-3.25
2023-03-05T19:37:32.276Z,-3.33
2023-03-05T19:42:39.093Z,-3.42
2023-03-05T19:47:45.256Z,-3.45
2023-03-05T19:52:51.255Z,-3.42
2023-03-05T19:57:57.385Z,-3.39
2023-03-05T20:03:03.713Z,-3.43
2023-03-05T20:08:09.741Z,-3.52
2023-03-05T20:13:15.518Z,-3.64
2023-03-05T20:18:21.922Z,-3.71
2023-03-05T20:23:31.350Z,-3.74
2023-03-05T20:28:37.111Z,-3.71
2023-03-05T20:33:42.972Z,-3.71
2023-03-05T20:38:49.085Z,-3.75
2023-03-05T20:43:55.775Z,-3.83
2023-03-05T20:49:03.814Z,-3.88
2023-03-05T20:54:12.227Z,-3.87
2023-03-05T20:59:18.070Z,-3.83
2023-03-05T21:04:23.749Z,-3.81
2023-03-05T21:09:29.588Z,-3.83
2023-03-05T21:14:38.140Z,-3.88
2023-03-05T21:19:44.104Z,-3.94
2023-03-05T21:25:20.937Z,-3.98
2023-03-05T21:30:31.947Z,-3.96
2023-03-05T21:35:38.923Z,-3.86
2023-03-05T21:40:48.635Z,-3.75
2023-03-05T21:45:57.229Z,-3.65
2023-03-05T21:51:38.342Z,-3.63
2023-03-05T21:56:54.503Z,-3.71
2023-03-05T22:02:00.733Z,-3.83
2023-03-05T22:07:07.140Z,-3.92
2023-03-05T22:13:05.854Z,-3.91
2023-03-05T22:18:12.087Z,-3.80
2023-03-05T22:23:19.698Z,-3.71
2023-03-05T22:28:26.228Z,-3.73
2023-03-05T22:33:32.613Z,-3.78
2023-03-05T22:38:38.658Z,-3.83
2023-03-05T22:43:44.656Z,-3.88
2023-03-05T22:48:52.719Z,-3.90
2023-03-05T22:53:58.642Z,-3.87
2023-03-05T22:59:04.680Z,-3.85
2023-03-05T23:04:57.631Z,-3.85
2023-03-05T23:10:07.201Z,-3.95
2023-03-05T23:15:16.484Z,-4.06
2023-03-05T23:20:24.205Z,-4.19
2023-03-05T23:25:32.881Z,-4.36
2023-03-05T23:30:39.495Z,-4.50
2023-03-05T23:35:52.852Z,-4.55
2023-03-05T23:41:01.399Z,-4.55
2023-03-05T23:46:11.996Z,-4.52
2023-03-05T23:51:18.130Z,-4.50
2023-03-05T23:56:24.186Z,-4.54
